createdAt,value
2022-11-09T00:02:47.588Z,7.23
2022-11-09T00:05:59.538Z,8.80
2022-11-09T00:09:07.894Z,7.83
2022-11-09T00:12:11.384Z,6.33
2022-11-09T00:15:14.395Z,6.47
2022-11-09T00:18:17.363Z,4.87
2022-11-09T00:21:25.541Z,9.17
2022-11-09T00:24:30.128Z,8.70
2022-11-09T00:27:33.068Z,5.97
2022-11-09T00:30:36.082Z,5.27
2022-11-09T00:33:39.691Z,6.20
2022-11-09T00:36:44.722Z,5.70
2022-11-09T00:39:47.660Z,6.93
2022-11-09T00:42:50.888Z,6.90
2022-11-09T00:45:53.837Z,4.80
2022-11-09T00:48:57.352Z,8.03
2022-11-09T00:52:01.800Z,6.57
2022-11-09T00:55:06.519Z,9.20
2022-11-09T00:58:09.449Z,5.50
2022-11-09T01:01:15.324Z,6.67
2022-11-09T01:04:19.531Z,5.53
2022-11-09T01:07:23.967Z,5.23
2022-11-09T01:10:26.904Z,4.97
2022-11-09T01:13:30.439Z,4.60
2022-11-09T01:16:33.390Z,4.60
2022-11-09T01:19:36.452Z,4.27
2022-11-09T01:22:40.722Z,4.80
2022-11-09T01:25:44.727Z,4.77
2022-11-09T01:28:48.138Z,3.87
2022-11-09T01:31:51.050Z,8.53
2022-11-09T01:34:54.158Z,4.27
2022-11-09T01:37:58.422Z,4.30
2022-11-09T01:41:01.722Z,4.37
2022-11-09T01:44:08.852Z,4.53
2022-11-09T01:47:25.957Z,6.97
2022-11-09T01:50:37.734Z,4.53
2022-11-09T01:53:47.414Z,4.53
2022-11-09T01:56:57.496Z,5.50
2022-11-09T02:00:07.394Z,4.23
2022-11-09T02:03:23.103Z,4.33
2022-11-09T02:06:29.949Z,6.90
2022-11-09T02:09:42.190Z,6.00
2022-11-09T02:12:46.464Z,5.03
2022-11-09T02:15:51.041Z,6.97
2022-11-09T02:18:56.637Z,4.00
2022-11-09T02:22:02.507Z,4.90
2022-11-09T02:25:09.814Z,8.67
2022-11-09T02:28:15.359Z,5.10
2022-11-09T02:31:20.456Z,7.90
2022-11-09T02:34:26.160Z,4.70
2022-11-09T02:37:34.531Z,4.80
2022-11-09T02:40:41.854Z,5.03
2022-11-09T02:43:45.142Z,4.90
2022-11-09T02:46:48.441Z,4.00
2022-11-09T02:49:51.714Z,4.57
2022-11-09T02:52:57.457Z,7.47
2022-11-09T02:56:00.609Z,6.10
2022-11-09T02:59:04.254Z,4.53
2022-11-09T03:02:08.687Z,4.40
2022-11-09T03:05:11.974Z,5.10
2022-11-09T03:08:19.760Z,4.97
2022-11-09T03:11:23.876Z,4.83
2022-11-09T03:14:26.987Z,4.03
2022-11-09T03:17:34.253Z,5.13
2022-11-09T03:20:37.302Z,4.30
2022-11-09T03:23:42.047Z,5.47
2022-11-09T03:26:45.081Z,4.03
2022-11-09T03:29:48.799Z,4.67
2022-11-09T03:32:53.838Z,4.27
2022-11-09T03:35:57.201Z,8.37
2022-11-09T03:39:01.656Z,5.73
2022-11-09T03:42:04.956Z,6.90
2022-11-09T03:45:09.641Z,5.37
2022-11-09T03:48:12.604Z,3.70
2022-11-09T03:51:15.896Z,4.37
2022-11-09T03:54:20.846Z,3.87
2022-11-09T03:57:23.834Z,5.47
2022-11-09T04:00:26.771Z,6.00
2022-11-09T04:03:30.539Z,4.00
2022-11-09T04:06:33.570Z,4.00
2022-11-09T04:09:37.990Z,3.97
2022-11-09T04:12:40.921Z,4.37
2022-11-09T04:15:44.563Z,6.47
2022-11-09T04:18:47.478Z,6.30
2022-11-09T04:21:50.830Z,4.50
2022-11-09T04:24:55.467Z,5.67
2022-11-09T04:27:59.693Z,5.60
2022-11-09T04:31:03.149Z,5.07
2022-11-09T04:34:06.109Z,4.20
2022-11-09T04:37:09.108Z,5.37
2022-11-09T04:40:14.263Z,4.40
2022-11-09T04:43:17.380Z,5.97
2022-11-09T04:46:20.463Z,5.57
2022-11-09T04:49:23.899Z,5.77
2022-11-09T04:52:26.815Z,6.23
2022-11-09T04:55:31.179Z,5.20
2022-11-09T04:58:34.514Z,4.83
2022-11-09T05:01:37.459Z,4.60
2022-11-09T05:04:40.406Z,7.13
2022-11-09T05:07:43.538Z,6.67
2022-11-09T05:10:47.782Z,6.63
2022-11-09T05:13:51.910Z,5.67
2022-11-09T05:16:55.177Z,8.13
2022-11-09T05:19:58.116Z,5.87
2022-11-09T05:23:19.633Z,5.67
2022-11-09T05:26:24.381Z,6.60
2022-11-09T05:29:27.316Z,5.87
2022-11-09T05:32:30.242Z,6.43
2022-11-09T05:35:34.761Z,5.47
2022-11-09T05:38:37.685Z,5.63
2022-11-09T05:41:43.814Z,6.50
2022-11-09T05:44:46.752Z,5.67
2022-11-09T05:47:50.127Z,5.60
2022-11-09T05:50:53.062Z,4.97
2022-11-09T05:53:59.304Z,6.90
2022-11-09T05:57:03.897Z,8.17
2022-11-09T06:00:11.060Z,5.63
2022-11-09T06:03:15.951Z,8.47
2022-11-09T06:06:19.015Z,6.17
2022-11-09T06:09:21.960Z,5.97
2022-11-09T06:12:26.189Z,5.83
2022-11-09T06:15:29.765Z,6.60
2022-11-09T06:18:34.842Z,5.43
2022-11-09T06:21:37.839Z,6.87
2022-11-09T06:24:41.188Z,6.60
2022-11-09T06:27:45.451Z,6.20
2022-11-09T06:30:48.468Z,5.80
2022-11-09T06:33:51.808Z,5.87
2022-11-09T06:36:55.070Z,7.27
2022-11-09T06:39:57.992Z,6.13
2022-11-09T06:43:02.475Z,7.60
2022-11-09T06:46:06.608Z,11.33
2022-11-09T06:49:09.627Z,7.03
2022-11-09T06:52:12.577Z,6.93
2022-11-09T06:55:15.736Z,6.80
2022-11-09T06:58:20.789Z,6.33
2022-11-09T07:01:28.592Z,6.67
2022-11-09T07:04:31.594Z,13.13
2022-11-09T07:07:34.971Z,7.87
2022-11-09T07:10:38.441Z,6.73
2022-11-09T07:13:43.080Z,6.00
2022-11-09T07:16:46.060Z,5.70
2022-11-09T07:19:48.992Z,9.10
2022-11-09T07:22:51.937Z,7.43
2022-11-09T07:25:55.209Z,8.03
2022-11-09T07:28:59.459Z,7.53
2022-11-09T07:32:02.382Z,7.37
2022-11-09T07:35:07.597Z,10.90
2022-11-09T07:38:10.616Z,7.27
2022-11-09T07:41:13.576Z,7.53
2022-11-09T07:44:18.787Z,7.30
2022-11-09T07:47:22.134Z,7.23
2022-11-09T07:50:25.280Z,7.40
2022-11-09T07:53:28.241Z,9.33
2022-11-09T07:56:31.202Z,8.47
2022-11-09T07:59:35.497Z,7.63
2022-11-09T08:02:38.469Z,9.17
2022-11-09T08:05:41.622Z,6.83
2022-11-09T08:08:44.634Z,6.23
2022-11-09T08:11:47.742Z,11.00
2022-11-09T08:14:52.035Z,10.83
2022-11-09T08:17:55.478Z,10.03
2022-11-09T08:20:58.448Z,8.77
2022-11-09T08:24:01.385Z,8.00
2022-11-09T08:27:04.316Z,8.57
2022-11-09T08:30:14.336Z,10.17
2022-11-09T08:33:17.426Z,8.57
2022-11-09T08:36:20.596Z,7.90
2022-11-09T08:39:23.761Z,6.97
2022-11-09T08:42:26.747Z,7.47
2022-11-09T08:45:33.857Z,10.37
2022-11-09T08:48:36.855Z,9.33
2022-11-09T08:51:39.867Z,8.73
2022-11-09T08:54:45.456Z,7.90
2022-11-09T08:57:48.508Z,9.27
2022-11-09T09:00:52.902Z,8.93
2022-11-09T09:03:55.933Z,9.80
2022-11-09T09:07:00.272Z,8.57
2022-11-09T09:10:03.637Z,12.17
2022-11-09T09:13:06.718Z,7.37
2022-11-09T09:16:16.370Z,7.10
2022-11-09T09:19:19.316Z,8.10
2022-11-09T09:22:22.349Z,10.03
2022-11-09T09:25:25.508Z,8.53
2022-11-09T09:28:28.757Z,8.67
2022-11-09T09:31:33.091Z,8.33
2022-11-09T09:34:36.044Z,10.10
2022-11-09T09:37:39.240Z,9.77
2022-11-09T09:40:55.930Z,9.63
2022-11-09T09:44:10.015Z,8.07
2022-11-09T09:47:20.266Z,8.50
2022-11-09T09:50:27.594Z,9.73
2022-11-09T09:53:36.755Z,11.90
2022-11-09T09:56:43.304Z,8.47
2022-11-09T09:59:50.962Z,7.07
2022-11-09T10:02:56.213Z,8.60
2022-11-09T10:06:10.365Z,7.83
2022-11-09T10:09:29.562Z,8.77
2022-11-09T10:12:42.746Z,8.27
2022-11-09T10:15:53.925Z,8.50
2022-11-09T10:19:26.782Z,10.07
2022-11-09T10:22:40.661Z,9.63
2022-11-09T10:26:03.756Z,9.37
2022-11-09T10:29:24.064Z,10.43
2022-11-09T10:32:32.767Z,11.40
2022-11-09T10:35:42.165Z,8.77
2022-11-09T10:38:51.321Z,8.63
2022-11-09T10:42:13.261Z,7.57
2022-11-09T10:45:37.374Z,6.53
2022-11-09T10:49:19.879Z,6.13
2022-11-09T10:52:47.245Z,6.70
2022-11-09T10:56:20.711Z,7.70
2022-11-09T10:59:50.077Z,8.33
2022-11-09T11:03:16.716Z,7.83
2022-11-09T11:06:38.765Z,6.50
2022-11-09T11:10:12.159Z,6.50
2022-11-09T11:13:33.912Z,7.13
2022-11-09T11:16:56.201Z,5.67
2022-11-09T11:20:31.174Z,7.03
2022-11-09T11:24:15.914Z,6.60
2022-11-09T11:27:44.434Z,5.88
2022-11-09T11:31:11.362Z,8.45
2022-11-09T11:34:58.650Z,8.27
2022-11-09T11:38:28.655Z,7.28
2022-11-09T11:42:08.083Z,5.60
2022-11-09T11:45:41.103Z,7.10
2022-11-09T11:49:48.473Z,9.60
2022-11-09T11:53:24.577Z,5.35
2022-11-09T11:56:51.122Z,5.82
2022-11-09T12:00:16.148Z,6.85
2022-11-09T12:04:02.716Z,5.05
2022-11-09T12:07:35.052Z,5.32
2022-11-09T12:11:04.954Z,5.57
2022-11-09T12:14:44.284Z,6.05
2022-11-09T12:18:17.602Z,5.47
2022-11-09T12:21:47.424Z,7.95
2022-11-09T12:25:20.597Z,3.60
2022-11-09T12:29:06.918Z,8.18
2022-11-09T12:32:39.738Z,5.50
2022-11-09T12:36:07.675Z,5.25
2022-11-09T12:39:37.664Z,4.25
2022-11-09T12:43:05.513Z,4.25
2022-11-09T12:46:37.866Z,3.90
2022-11-09T12:50:00.004Z,3.83
2022-11-09T12:54:32.163Z,5.55
2022-11-09T12:58:00.587Z,4.68
2022-11-09T13:01:46.260Z,4.05
2022-11-09T13:05:32.184Z,4.75
2022-11-09T13:09:02.842Z,4.90
2022-11-09T13:12:35.690Z,5.05
2022-11-09T13:16:33.917Z,3.80
2022-11-09T13:19:56.978Z,3.78
2022-11-09T13:23:54.698Z,3.17
2022-11-09T13:27:47.037Z,3.70
2022-11-09T13:31:11.621Z,4.07
2022-11-09T13:34:46.719Z,4.40
2022-11-09T13:38:16.995Z,3.65
2022-11-09T13:41:44.395Z,4.82
2022-11-09T13:45:37.634Z,6.25
2022-11-09T13:49:00.647Z,7.32
2022-11-09T13:52:51.718Z,3.60
2022-11-09T13:56:23.543Z,4.18
2022-11-09T13:59:50.131Z,4.15
2022-11-09T14:03:20.857Z,3.78
2022-11-09T14:06:43.875Z,3.78
2022-11-09T14:10:25.281Z,3.97
2022-11-09T14:14:09.539Z,7.97
2022-11-09T14:17:43.212Z,6.03
2022-11-09T14:21:34.130Z,4.45
2022-11-09T14:24:57.187Z,5.20
2022-11-09T14:28:24.234Z,7.27
2022-11-09T14:31:46.442Z,4.83
2022-11-09T14:35:25.939Z,4.22
2022-11-09T14:38:49.349Z,4.45
2022-11-09T14:42:20.466Z,4.72
2022-11-09T14:45:50.391Z,8.10
2022-11-09T14:49:13.910Z,3.73
2022-11-09T14:52:35.990Z,5.23
2022-11-09T14:56:03.536Z,5.00
2022-11-09T14:59:32.336Z,4.63
2022-11-09T15:02:58.102Z,5.30
2022-11-09T15:06:20.101Z,4.80
2022-11-09T15:09:45.790Z,4.70
2022-11-09T15:13:07.678Z,5.10
2022-11-09T15:16:32.678Z,4.40
2022-11-09T15:19:57.666Z,4.17
2022-11-09T15:23:39.329Z,5.57
2022-11-09T15:27:01.171Z,6.07
2022-11-09T15:30:32.479Z,4.40
2022-11-09T15:33:57.536Z,4.83
2022-11-09T15:37:31.806Z,6.37
2022-11-09T15:40:55.842Z,5.13
2022-11-09T15:44:17.821Z,6.60
2022-11-09T15:47:39.741Z,7.40
2022-11-09T15:51:02.868Z,7.03
2022-11-09T15:54:25.683Z,5.53
2022-11-09T15:57:47.129Z,6.13
2022-11-09T16:01:11.012Z,6.60
2022-11-09T16:04:32.628Z,8.53
2022-11-09T16:07:56.215Z,7.30
2022-11-09T16:11:18.251Z,5.07
2022-11-09T16:14:40.342Z,6.53
2022-11-09T16:18:01.982Z,6.57
2022-11-09T16:21:24.686Z,7.07
2022-11-09T16:24:48.320Z,7.00
2022-11-09T16:28:10.454Z,6.23
2022-11-09T16:35:29.168Z,7.43
2022-11-09T16:38:54.104Z,7.77
2022-11-09T16:42:18.659Z,8.67
2022-11-09T16:45:46.871Z,8.17
2022-11-09T16:49:08.707Z,11.90
2022-11-09T16:52:30.276Z,13.57
2022-11-09T16:55:51.874Z,12.70
2022-11-09T16:59:14.786Z,12.83
2022-11-09T17:02:36.822Z,9.47
2022-11-09T17:06:01.579Z,9.03
2022-11-09T17:09:23.298Z,8.30
2022-11-09T17:12:45.137Z,8.00
2022-11-09T17:16:10.794Z,14.03
2022-11-09T17:19:33.207Z,8.97
2022-11-09T17:22:54.753Z,7.47
2022-11-09T17:26:16.949Z,6.90
2022-11-09T17:29:39.733Z,8.23
2022-11-09T17:33:02.614Z,7.80
2022-11-09T17:36:48.841Z,8.30
2022-11-09T17:40:08.250Z,8.23
2022-11-09T17:43:31.266Z,15.57
2022-11-09T17:46:52.844Z,10.13
2022-11-09T17:50:16.825Z,9.03
2022-11-09T17:53:38.761Z,10.40
2022-11-09T17:57:02.377Z,8.97
2022-11-09T18:00:24.724Z,8.00
2022-11-09T18:03:46.605Z,9.47
2022-11-09T18:07:09.967Z,8.10
2022-11-09T18:10:31.426Z,7.53
2022-11-09T18:13:53.026Z,10.50
2022-11-09T18:17:14.678Z,8.40
2022-11-09T18:20:38.760Z,10.27
2022-11-09T18:24:01.802Z,12.10
2022-11-09T18:27:28.972Z,13.27
2022-11-09T18:30:51.974Z,15.73
2022-11-09T18:34:13.565Z,12.43
2022-11-09T18:37:36.300Z,11.37
2022-11-09T18:41:02.369Z,10.13
2022-11-09T18:44:24.434Z,13.80
2022-11-09T18:47:49.191Z,14.07
2022-11-09T18:51:12.760Z,13.43
2022-11-09T18:54:35.569Z,10.37
2022-11-09T18:57:58.582Z,11.93
2022-11-09T19:01:23.495Z,7.83
2022-11-09T19:04:45.981Z,12.03
2022-11-09T19:08:09.557Z,13.10
2022-11-09T19:11:32.428Z,12.50
2022-11-09T19:14:55.831Z,10.37
2022-11-09T19:18:18.012Z,10.00
2022-11-09T19:21:42.674Z,10.87
2022-11-09T19:25:04.498Z,9.83
2022-11-09T19:28:26.545Z,11.73
2022-11-09T19:31:49.710Z,9.27
2022-11-09T19:35:11.585Z,8.60
2022-11-09T19:38:33.179Z,11.27
2022-11-09T19:41:54.784Z,9.27
2022-11-09T19:45:17.197Z,10.00
2022-11-09T19:48:45.476Z,10.70
2022-11-09T19:52:07.470Z,9.23
2022-11-09T19:55:29.670Z,9.97
2022-11-09T19:58:54.020Z,10.23
2022-11-09T20:02:16.118Z,9.00
2022-11-09T20:05:39.286Z,7.80
2022-11-09T20:09:01.531Z,10.20
2022-11-09T20:12:40.943Z,11.33
2022-11-09T20:16:04.085Z,10.77
2022-11-09T20:19:25.532Z,11.27
2022-11-09T20:22:48.567Z,15.47
2022-11-09T20:26:13.258Z,11.83
2022-11-09T20:29:35.289Z,11.83
2022-11-09T20:32:57.313Z,11.67
2022-11-09T20:36:19.710Z,13.03
2022-11-09T20:39:45.298Z,12.93
2022-11-09T20:43:07.108Z,13.17
2022-11-09T20:46:34.510Z,14.67
2022-11-09T20:49:58.490Z,15.27
2022-11-09T20:53:23.608Z,11.63
2022-11-09T20:56:46.981Z,13.47
2022-11-09T21:00:10.778Z,12.93
2022-11-09T21:03:32.632Z,13.30
2022-11-09T21:06:54.747Z,10.53
2022-11-09T21:10:16.663Z,14.20
2022-11-09T21:13:41.295Z,15.00
2022-11-09T21:17:03.086Z,13.40
2022-11-09T21:20:25.179Z,10.33
2022-11-09T21:24:04.535Z,10.90
2022-11-09T21:27:44.213Z,10.63
2022-11-09T21:31:10.628Z,11.03
2022-11-09T21:34:36.517Z,11.73
2022-11-09T21:37:58.957Z,8.33
2022-11-09T21:41:38.277Z,11.57
2022-11-09T21:44:59.856Z,9.67
2022-11-09T21:48:22.996Z,8.63
2022-11-09T21:51:44.510Z,7.83
2022-11-09T21:55:06.904Z,9.90
2022-11-09T21:58:28.485Z,9.53
2022-11-09T22:01:50.005Z,7.03
2022-11-09T22:05:13.127Z,6.63
2022-11-09T22:08:37.273Z,8.03
2022-11-09T22:12:19.718Z,8.77
2022-11-09T22:15:58.810Z,8.07
2022-11-09T22:19:38.177Z,9.67
2022-11-09T22:23:05.899Z,8.73
2022-11-09T22:26:28.378Z,7.10
2022-11-09T22:29:50.002Z,8.53
2022-11-09T22:33:11.439Z,6.97
2022-11-09T22:36:32.765Z,7.63
2022-11-09T22:39:55.844Z,6.77
2022-11-09T22:43:17.567Z,6.90
2022-11-09T22:46:39.907Z,6.77
2022-11-09T22:50:01.874Z,5.63
2022-11-09T22:53:23.961Z,5.57
2022-11-09T22:56:49.032Z,5.47
2022-11-09T23:00:15.396Z,7.33
2022-11-09T23:03:37.209Z,6.00
2022-11-09T23:06:58.773Z,5.10
2022-11-09T23:10:20.448Z,4.57
2022-11-09T23:13:44.595Z,7.50
2022-11-09T23:17:26.665Z,3.90
2022-11-09T23:20:49.275Z,5.43
2022-11-09T23:24:31.492Z,5.57
2022-11-09T23:27:53.590Z,5.27
2022-11-09T23:31:23.533Z,10.27
2022-11-09T23:34:45.052Z,5.03
2022-11-09T23:38:07.462Z,5.10
2022-11-09T23:41:30.302Z,8.37
2022-11-09T23:44:52.097Z,5.17
2022-11-09T23:48:18.459Z,5.67
2022-11-09T23:51:40.285Z,5.57
2022-11-09T23:55:01.889Z,6.23
2022-11-09T23:58:23.815Z,3.93
